sensor_id;sensor_type;location;lat;lon;timestamp;P1;durP1;ratioP1;P2;durP2;ratioP2
11685;SDS011;5899;51.282;6.094;2022-07-29T00:00:07;4.40;;;2.08;;
11685;SDS011;5899;51.282;6.094;2022-07-29T00:02:34;2.03;;;1.70;;
11685;SDS011;5899;51.282;6.094;2022-07-29T00:05:00;3.78;;;1.88;;
11685;SDS011;5899;51.282;6.094;2022-07-29T00:07:27;3.30;;;1.98;;
11685;SDS011;5899;51.282;6.094;2022-07-29T00:09:53;7.72;;;2.40;;
11685;SDS011;5899;51.282;6.094;2022-07-29T00:12:20;6.38;;;1.95;;
11685;SDS011;5899;51.282;6.094;2022-07-29T00:14:48;4.53;;;2.05;;
11685;SDS011;5899;51.282;6.094;2022-07-29T00:17:15;7.05;;;2.13;;
11685;SDS011;5899;51.282;6.094;2022-07-29T00:19:41;3.10;;;1.80;;
11685;SDS011;5899;51.282;6.094;2022-07-29T00:22:07;3.70;;;1.75;;
11685;SDS011;5899;51.282;6.094;2022-07-29T00:24:34;3.60;;;2.00;;
11685;SDS011;5899;51.282;6.094;2022-07-29T00:27:00;3.90;;;2.15;;
11685;SDS011;5899;51.282;6.094;2022-07-29T00:29:27;2.92;;;1.92;;
11685;SDS011;5899;51.282;6.094;2022-07-29T00:31:55;4.57;;;1.80;;
11685;SDS011;5899;51.282;6.094;2022-07-29T00:34:21;4.75;;;2.05;;
11685;SDS011;5899;51.282;6.094;2022-07-29T00:37:05;6.32;;;2.40;;
11685;SDS011;5899;51.282;6.094;2022-07-29T00:39:31;3.13;;;1.83;;
11685;SDS011;5899;51.282;6.094;2022-07-29T00:41:58;4.30;;;1.98;;
11685;SDS011;5899;51.282;6.094;2022-07-29T00:44:24;5.03;;;2.15;;
11685;SDS011;5899;51.282;6.094;2022-07-29T00:46:51;4.32;;;2.08;;
11685;SDS011;5899;51.282;6.094;2022-07-29T00:49:18;2.55;;;1.95;;
11685;SDS011;5899;51.282;6.094;2022-07-29T00:51:45;3.97;;;2.00;;
11685;SDS011;5899;51.282;6.094;2022-07-29T00:54:11;4.38;;;2.00;;
11685;SDS011;5899;51.282;6.094;2022-07-29T00:56:38;3.17;;;1.80;;
11685;SDS011;5899;51.282;6.094;2022-07-29T00:59:04;3.35;;;1.98;;
11685;SDS011;5899;51.282;6.094;2022-07-29T01:01:32;3.90;;;2.25;;
11685;SDS011;5899;51.282;6.094;2022-07-29T01:03:59;3.55;;;1.98;;
11685;SDS011;5899;51.282;6.094;2022-07-29T01:06:27;5.30;;;2.13;;
11685;SDS011;5899;51.282;6.094;2022-07-29T01:08:54;5.57;;;2.25;;
11685;SDS011;5899;51.282;6.094;2022-07-29T01:11:20;3.22;;;2.03;;
11685;SDS011;5899;51.282;6.094;2022-07-29T01:13:47;3.35;;;2.10;;
11685;SDS011;5899;51.282;6.094;2022-07-29T01:16:15;3.28;;;2.40;;
11685;SDS011;5899;51.282;6.094;2022-07-29T01:18:44;5.03;;;2.53;;
11685;SDS011;5899;51.282;6.094;2022-07-29T01:21:23;6.38;;;2.60;;
11685;SDS011;5899;51.282;6.094;2022-07-29T01:24:07;5.85;;;2.35;;
11685;SDS011;5899;51.282;6.094;2022-07-29T01:26:41;3.95;;;2.05;;
11685;SDS011;5899;51.282;6.094;2022-07-29T01:29:12;5.55;;;2.33;;
11685;SDS011;5899;51.282;6.094;2022-07-29T01:31:41;8.88;;;2.67;;
11685;SDS011;5899;51.282;6.094;2022-07-29T01:34:11;4.95;;;2.25;;
11685;SDS011;5899;51.282;6.094;2022-07-29T01:36:40;8.73;;;2.20;;
11685;SDS011;5899;51.282;6.094;2022-07-29T01:39:09;3.45;;;2.22;;
11685;SDS011;5899;51.282;6.094;2022-07-29T01:41:37;4.35;;;2.22;;
11685;SDS011;5899;51.282;6.094;2022-07-29T01:44:11;5.45;;;2.50;;
11685;SDS011;5899;51.282;6.094;2022-07-29T01:46:41;7.15;;;2.47;;
11685;SDS011;5899;51.282;6.094;2022-07-29T01:49:10;7.28;;;2.20;;
11685;SDS011;5899;51.282;6.094;2022-07-29T01:51:40;4.78;;;2.40;;
11685;SDS011;5899;51.282;6.094;2022-07-29T01:54:08;4.20;;;2.00;;
11685;SDS011;5899;51.282;6.094;2022-07-29T01:56:36;3.88;;;2.00;;
11685;SDS011;5899;51.282;6.094;2022-07-29T01:59:04;2.83;;;1.88;;
11685;SDS011;5899;51.282;6.094;2022-07-29T02:01:31;3.22;;;2.00;;
11685;SDS011;5899;51.282;6.094;2022-07-29T02:04:00;3.15;;;2.00;;
11685;SDS011;5899;51.282;6.094;2022-07-29T02:06:29;3.90;;;2.33;;
11685;SDS011;5899;51.282;6.094;2022-07-29T02:08:57;5.30;;;2.50;;
11685;SDS011;5899;51.282;6.094;2022-07-29T02:11:24;3.78;;;2.08;;
11685;SDS011;5899;51.282;6.094;2022-07-29T02:13:51;3.83;;;2.30;;
11685;SDS011;5899;51.282;6.094;2022-07-29T02:16:18;5.20;;;2.30;;
11685;SDS011;5899;51.282;6.094;2022-07-29T02:18:47;7.05;;;2.30;;
11685;SDS011;5899;51.282;6.094;2022-07-29T02:21:16;4.65;;;2.30;;
11685;SDS011;5899;51.282;6.094;2022-07-29T02:23:45;5.65;;;2.50;;
11685;SDS011;5899;51.282;6.094;2022-07-29T02:26:12;3.85;;;2.38;;
11685;SDS011;5899;51.282;6.094;2022-07-29T02:28:38;6.35;;;2.78;;
11685;SDS011;5899;51.282;6.094;2022-07-29T02:31:05;3.13;;;2.17;;
11685;SDS011;5899;51.282;6.094;2022-07-29T02:33:32;2.80;;;2.45;;
11685;SDS011;5899;51.282;6.094;2022-07-29T02:35:59;3.80;;;3.05;;
11685;SDS011;5899;51.282;6.094;2022-07-29T02:38:28;5.57;;;2.53;;
11685;SDS011;5899;51.282;6.094;2022-07-29T02:41:15;5.13;;;2.70;;
11685;SDS011;5899;51.282;6.094;2022-07-29T02:43:43;5.57;;;3.40;;
11685;SDS011;5899;51.282;6.094;2022-07-29T02:46:11;4.75;;;3.22;;
11685;SDS011;5899;51.282;6.094;2022-07-29T02:48:41;3.78;;;2.92;;
11685;SDS011;5899;51.282;6.094;2022-07-29T02:51:08;4.40;;;3.60;;
11685;SDS011;5899;51.282;6.094;2022-07-29T02:53:38;5.72;;;3.20;;
11685;SDS011;5899;51.282;6.094;2022-07-29T02:56:06;5.43;;;3.03;;
11685;SDS011;5899;51.282;6.094;2022-07-29T02:58:34;6.25;;;3.28;;
11685;SDS011;5899;51.282;6.094;2022-07-29T03:01:04;4.57;;;3.60;;
11685;SDS011;5899;51.282;6.094;2022-07-29T03:03:36;3.50;;;2.85;;
11685;SDS011;5899;51.282;6.094;2022-07-29T03:06:03;3.63;;;2.78;;
11685;SDS011;5899;51.282;6.094;2022-07-29T03:08:30;4.25;;;2.97;;
11685;SDS011;5899;51.282;6.094;2022-07-29T03:10:59;5.50;;;3.47;;
11685;SDS011;5899;51.282;6.094;2022-07-29T03:13:26;4.88;;;3.47;;
11685;SDS011;5899;51.282;6.094;2022-07-29T03:15:53;5.68;;;3.10;;
11685;SDS011;5899;51.282;6.094;2022-07-29T03:18:20;3.20;;;2.90;;
11685;SDS011;5899;51.282;6.094;2022-07-29T03:20:46;7.72;;;3.22;;
11685;SDS011;5899;51.282;6.094;2022-07-29T03:23:17;6.82;;;3.42;;
11685;SDS011;5899;51.282;6.094;2022-07-29T03:25:44;4.10;;;2.90;;
11685;SDS011;5899;51.282;6.094;2022-07-29T03:28:12;4.32;;;2.90;;
11685;SDS011;5899;51.282;6.094;2022-07-29T03:30:38;4.65;;;3.30;;
11685;SDS011;5899;51.282;6.094;2022-07-29T03:33:05;4.82;;;3.28;;
11685;SDS011;5899;51.282;6.094;2022-07-29T03:35:31;5.75;;;3.10;;
11685;SDS011;5899;51.282;6.094;2022-07-29T03:37:58;6.63;;;3.38;;
11685;SDS011;5899;51.282;6.094;2022-07-29T03:40:28;8.13;;;3.50;;
11685;SDS011;5899;51.282;6.094;2022-07-29T03:42:56;9.10;;;3.45;;
11685;SDS011;5899;51.282;6.094;2022-07-29T03:45:26;8.18;;;4.20;;
11685;SDS011;5899;51.282;6.094;2022-07-29T03:47:56;6.00;;;3.60;;
11685;SDS011;5899;51.282;6.094;2022-07-29T03:50:25;6.45;;;3.60;;
11685;SDS011;5899;51.282;6.094;2022-07-29T03:52:51;5.35;;;3.85;;
11685;SDS011;5899;51.282;6.094;2022-07-29T03:55:18;5.25;;;3.90;;
11685;SDS011;5899;51.282;6.094;2022-07-29T03:57:45;7.82;;;4.38;;
11685;SDS011;5899;51.282;6.094;2022-07-29T04:00:12;5.57;;;4.15;;
11685;SDS011;5899;51.282;6.094;2022-07-29T04:02:42;5.43;;;3.97;;
11685;SDS011;5899;51.282;6.094;2022-07-29T04:05:12;6.00;;;4.15;;
11685;SDS011;5899;51.282;6.094;2022-07-29T04:07:39;5.75;;;4.65;;
11685;SDS011;5899;51.282;6.094;2022-07-29T04:10:06;6.95;;;4.25;;
11685;SDS011;5899;51.282;6.094;2022-07-29T04:12:32;6.65;;;4.22;;
11685;SDS011;5899;51.282;6.094;2022-07-29T04:14:59;10.10;;;4.78;;
11685;SDS011;5899;51.282;6.094;2022-07-29T04:17:27;7.45;;;4.05;;
11685;SDS011;5899;51.282;6.094;2022-07-29T04:19:55;6.95;;;4.22;;
11685;SDS011;5899;51.282;6.094;2022-07-29T04:22:21;4.60;;;3.63;;
11685;SDS011;5899;51.282;6.094;2022-07-29T04:24:48;4.35;;;3.92;;
11685;SDS011;5899;51.282;6.094;2022-07-29T04:27:14;4.55;;;3.58;;
11685;SDS011;5899;51.282;6.094;2022-07-29T04:29:41;4.43;;;4.03;;
11685;SDS011;5899;51.282;6.094;2022-07-29T04:32:07;6.07;;;4.28;;
11685;SDS011;5899;51.282;6.094;2022-07-29T04:34:33;4.30;;;3.70;;
11685;SDS011;5899;51.282;6.094;2022-07-29T04:37:01;7.07;;;4.60;;
11685;SDS011;5899;51.282;6.094;2022-07-29T04:39:28;6.88;;;4.20;;
11685;SDS011;5899;51.282;6.094;2022-07-29T04:41:54;4.82;;;4.18;;
11685;SDS011;5899;51.282;6.094;2022-07-29T04:44:21;6.68;;;4.40;;
11685;SDS011;5899;51.282;6.094;2022-07-29T04:46:47;5.68;;;4.35;;
11685;SDS011;5899;51.282;6.094;2022-07-29T04:49:14;8.80;;;5.50;;
11685;SDS011;5899;51.282;6.094;2022-07-29T04:51:40;5.97;;;4.50;;
11685;SDS011;5899;51.282;6.094;2022-07-29T04:54:08;6.30;;;4.60;;
11685;SDS011;5899;51.282;6.094;2022-07-29T04:56:35;5.68;;;4.88;;
11685;SDS011;5899;51.282;6.094;2022-07-29T04:59:01;5.80;;;5.10;;
11685;SDS011;5899;51.282;6.094;2022-07-29T05:01:27;7.57;;;5.15;;
11685;SDS011;5899;51.282;6.094;2022-07-29T05:03:54;8.02;;;5.40;;
11685;SDS011;5899;51.282;6.094;2022-07-29T05:06:20;5.45;;;4.95;;
11685;SDS011;5899;51.282;6.094;2022-07-29T05:08:47;7.55;;;5.47;;
11685;SDS011;5899;51.282;6.094;2022-07-29T05:11:15;5.10;;;4.68;;
11685;SDS011;5899;51.282;6.094;2022-07-29T05:13:41;6.95;;;5.78;;
11685;SDS011;5899;51.282;6.094;2022-07-29T05:16:08;5.53;;;5.00;;
11685;SDS011;5899;51.282;6.094;2022-07-29T05:18:34;5.68;;;5.15;;
11685;SDS011;5899;51.282;6.094;2022-07-29T05:21:01;6.63;;;5.45;;
11685;SDS011;5899;51.282;6.094;2022-07-29T05:23:27;7.45;;;5.32;;
11685;SDS011;5899;51.282;6.094;2022-07-29T05:25:54;6.03;;;5.05;;
11685;SDS011;5899;51.282;6.094;2022-07-29T05:28:22;5.75;;;4.82;;
11685;SDS011;5899;51.282;6.094;2022-07-29T05:30:48;6.63;;;5.20;;
11685;SDS011;5899;51.282;6.094;2022-07-29T05:33:14;5.70;;;4.72;;
11685;SDS011;5899;51.282;6.094;2022-07-29T05:35:41;9.68;;;4.72;;
11685;SDS011;5899;51.282;6.094;2022-07-29T05:38:07;6.45;;;5.10;;
11685;SDS011;5899;51.282;6.094;2022-07-29T05:40:34;4.90;;;4.50;;
11685;SDS011;5899;51.282;6.094;2022-07-29T05:43:00;5.82;;;5.22;;
11685;SDS011;5899;51.282;6.094;2022-07-29T05:45:28;7.75;;;5.30;;
11685;SDS011;5899;51.282;6.094;2022-07-29T05:47:54;6.20;;;5.60;;
11685;SDS011;5899;51.282;6.094;2022-07-29T05:50:21;7.25;;;4.80;;
11685;SDS011;5899;51.282;6.094;2022-07-29T05:52:47;5.57;;;4.65;;
11685;SDS011;5899;51.282;6.094;2022-07-29T05:55:13;10.52;;;5.57;;
11685;SDS011;5899;51.282;6.094;2022-07-29T05:57:40;7.57;;;5.22;;
11685;SDS011;5899;51.282;6.094;2022-07-29T06:00:09;5.78;;;4.93;;
11685;SDS011;5899;51.282;6.094;2022-07-29T06:02:38;8.10;;;5.22;;
11685;SDS011;5899;51.282;6.094;2022-07-29T06:05:05;6.30;;;4.57;;
11685;SDS011;5899;51.282;6.094;2022-07-29T06:07:32;5.75;;;4.63;;
11685;SDS011;5899;51.282;6.094;2022-07-29T06:09:59;6.97;;;5.25;;
11685;SDS011;5899;51.282;6.094;2022-07-29T06:12:25;7.95;;;5.53;;
11685;SDS011;5899;51.282;6.094;2022-07-29T06:14:52;6.28;;;5.32;;
11685;SDS011;5899;51.282;6.094;2022-07-29T06:17:18;10.60;;;5.60;;
11685;SDS011;5899;51.282;6.094;2022-07-29T06:19:46;5.95;;;5.22;;
11685;SDS011;5899;51.282;6.094;2022-07-29T06:22:14;6.72;;;6.03;;
11685;SDS011;5899;51.282;6.094;2022-07-29T06:24:40;7.22;;;6.05;;
11685;SDS011;5899;51.282;6.094;2022-07-29T06:27:08;8.85;;;6.28;;
11685;SDS011;5899;51.282;6.094;2022-07-29T06:29:35;9.80;;;6.55;;
11685;SDS011;5899;51.282;6.094;2022-07-29T06:32:03;6.75;;;5.45;;
11685;SDS011;5899;51.282;6.094;2022-07-29T06:34:29;10.48;;;5.25;;
11685;SDS011;5899;51.282;6.094;2022-07-29T06:36:57;8.52;;;6.38;;
11685;SDS011;5899;51.282;6.094;2022-07-29T06:39:24;9.20;;;6.18;;
11685;SDS011;5899;51.282;6.094;2022-07-29T06:41:50;6.75;;;6.10;;
11685;SDS011;5899;51.282;6.094;2022-07-29T06:44:17;6.32;;;5.38;;
11685;SDS011;5899;51.282;6.094;2022-07-29T06:46:43;6.57;;;5.40;;
11685;SDS011;5899;51.282;6.094;2022-07-29T06:49:12;5.82;;;5.07;;
11685;SDS011;5899;51.282;6.094;2022-07-29T06:51:39;5.90;;;5.22;;
11685;SDS011;5899;51.282;6.094;2022-07-29T06:54:07;6.90;;;5.03;;
11685;SDS011;5899;51.282;6.094;2022-07-29T06:56:34;7.82;;;5.32;;
11685;SDS011;5899;51.282;6.094;2022-07-29T06:59:02;7.38;;;4.75;;
11685;SDS011;5899;51.282;6.094;2022-07-29T07:01:29;7.13;;;4.95;;
11685;SDS011;5899;51.282;6.094;2022-07-29T07:03:55;8.35;;;4.80;;
11685;SDS011;5899;51.282;6.094;2022-07-29T07:06:21;6.45;;;5.07;;
11685;SDS011;5899;51.282;6.094;2022-07-29T07:08:48;8.38;;;5.03;;
11685;SDS011;5899;51.282;6.094;2022-07-29T07:11:16;6.72;;;5.13;;
11685;SDS011;5899;51.282;6.094;2022-07-29T07:13:42;5.45;;;4.78;;
11685;SDS011;5899;51.282;6.094;2022-07-29T07:16:09;6.28;;;4.80;;
11685;SDS011;5899;51.282;6.094;2022-07-29T07:18:35;9.15;;;5.30;;
11685;SDS011;5899;51.282;6.094;2022-07-29T07:21:02;6.65;;;4.95;;
11685;SDS011;5899;51.282;6.094;2022-07-29T07:23:30;6.78;;;4.88;;
11685;SDS011;5899;51.282;6.094;2022-07-29T07:26:01;5.07;;;4.53;;
11685;SDS011;5899;51.282;6.094;2022-07-29T07:28:29;7.10;;;5.10;;
11685;SDS011;5899;51.282;6.094;2022-07-29T07:30:57;10.10;;;4.85;;
11685;SDS011;5899;51.282;6.094;2022-07-29T07:33:24;5.53;;;4.70;;
11685;SDS011;5899;51.282;6.094;2022-07-29T07:35:50;6.15;;;4.82;;
11685;SDS011;5899;51.282;6.094;2022-07-29T07:38:17;8.60;;;4.93;;
11685;SDS011;5899;51.282;6.094;2022-07-29T07:40:43;7.90;;;5.05;;
11685;SDS011;5899;51.282;6.094;2022-07-29T07:43:11;5.60;;;5.03;;
11685;SDS011;5899;51.282;6.094;2022-07-29T07:45:39;7.45;;;5.55;;
11685;SDS011;5899;51.282;6.094;2022-07-29T07:48:06;6.00;;;5.22;;
11685;SDS011;5899;51.282;6.094;2022-07-29T07:50:35;6.15;;;5.55;;
11685;SDS011;5899;51.282;6.094;2022-07-29T07:53:01;5.50;;;4.90;;
11685;SDS011;5899;51.282;6.094;2022-07-29T07:55:28;7.82;;;5.45;;
11685;SDS011;5899;51.282;6.094;2022-07-29T07:57:54;7.70;;;5.53;;
11685;SDS011;5899;51.282;6.094;2022-07-29T08:00:21;9.75;;;5.72;;
11685;SDS011;5899;51.282;6.094;2022-07-29T08:02:49;6.00;;;5.32;;
11685;SDS011;5899;51.282;6.094;2022-07-29T08:05:15;6.00;;;5.47;;
11685;SDS011;5899;51.282;6.094;2022-07-29T08:07:44;5.80;;;5.22;;
11685;SDS011;5899;51.282;6.094;2022-07-29T08:10:10;6.47;;;5.78;;
11685;SDS011;5899;51.282;6.094;2022-07-29T08:12:37;7.53;;;5.65;;
11685;SDS011;5899;51.282;6.094;2022-07-29T08:15:03;6.65;;;5.90;;
11685;SDS011;5899;51.282;6.094;2022-07-29T08:17:32;7.18;;;5.93;;
11685;SDS011;5899;51.282;6.094;2022-07-29T08:20:00;7.55;;;5.78;;
11685;SDS011;5899;51.282;6.094;2022-07-29T08:22:26;7.50;;;6.47;;
11685;SDS011;5899;51.282;6.094;2022-07-29T08:24:54;6.60;;;5.90;;
11685;SDS011;5899;51.282;6.094;2022-07-29T08:27:21;6.60;;;6.00;;
11685;SDS011;5899;51.282;6.094;2022-07-29T08:29:48;7.38;;;6.47;;
11685;SDS011;5899;51.282;6.094;2022-07-29T08:32:14;8.55;;;6.72;;
11685;SDS011;5899;51.282;6.094;2022-07-29T08:34:41;7.35;;;6.70;;
11685;SDS011;5899;51.282;6.094;2022-07-29T08:37:14;8.88;;;6.95;;
11685;SDS011;5899;51.282;6.094;2022-07-29T08:39:41;7.30;;;6.60;;
11685;SDS011;5899;51.282;6.094;2022-07-29T08:42:07;8.00;;;7.20;;
11685;SDS011;5899;51.282;6.094;2022-07-29T08:44:36;7.30;;;6.57;;
11685;SDS011;5899;51.282;6.094;2022-07-29T08:47:03;7.15;;;6.50;;
11685;SDS011;5899;51.282;6.094;2022-07-29T08:49:29;7.30;;;6.60;;
11685;SDS011;5899;51.282;6.094;2022-07-29T08:51:56;8.10;;;7.28;;
11685;SDS011;5899;51.282;6.094;2022-07-29T08:54:26;7.55;;;6.28;;
11685;SDS011;5899;51.282;6.094;2022-07-29T08:56:53;7.35;;;5.68;;
11685;SDS011;5899;51.282;6.094;2022-07-29T08:59:21;7.07;;;5.45;;
11685;SDS011;5899;51.282;6.094;2022-07-29T09:01:48;6.88;;;6.10;;
11685;SDS011;5899;51.282;6.094;2022-07-29T09:04:18;6.90;;;5.72;;
11685;SDS011;5899;51.282;6.094;2022-07-29T09:06:50;6.28;;;5.72;;
11685;SDS011;5899;51.282;6.094;2022-07-29T09:09:17;6.70;;;6.03;;
11685;SDS011;5899;51.282;6.094;2022-07-29T09:11:45;7.57;;;5.90;;
11685;SDS011;5899;51.282;6.094;2022-07-29T09:14:12;8.88;;;5.80;;
11685;SDS011;5899;51.282;6.094;2022-07-29T09:16:52;6.45;;;5.40;;
11685;SDS011;5899;51.282;6.094;2022-07-29T09:19:21;7.15;;;5.28;;
11685;SDS011;5899;51.282;6.094;2022-07-29T09:21:47;6.78;;;5.70;;
11685;SDS011;5899;51.282;6.094;2022-07-29T09:24:27;6.13;;;5.47;;
11685;SDS011;5899;51.282;6.094;2022-07-29T09:26:55;6.20;;;5.60;;
11685;SDS011;5899;51.282;6.094;2022-07-29T09:29:22;6.80;;;6.03;;
11685;SDS011;5899;51.282;6.094;2022-07-29T09:31:51;8.57;;;6.07;;
11685;SDS011;5899;51.282;6.094;2022-07-29T09:34:21;6.35;;;5.47;;
11685;SDS011;5899;51.282;6.094;2022-07-29T09:36:48;7.57;;;6.85;;
11685;SDS011;5899;51.282;6.094;2022-07-29T09:39:16;6.85;;;6.20;;
11685;SDS011;5899;51.282;6.094;2022-07-29T09:41:52;7.55;;;6.32;;
11685;SDS011;5899;51.282;6.094;2022-07-29T09:44:21;7.28;;;6.35;;
11685;SDS011;5899;51.282;6.094;2022-07-29T09:46:54;7.55;;;6.70;;
11685;SDS011;5899;51.282;6.094;2022-07-29T09:49:21;8.07;;;6.22;;
11685;SDS011;5899;51.282;6.094;2022-07-29T09:51:58;6.70;;;6.03;;
11685;SDS011;5899;51.282;6.094;2022-07-29T09:54:25;6.65;;;5.70;;
11685;SDS011;5899;51.282;6.094;2022-07-29T09:56:52;6.82;;;6.05;;
11685;SDS011;5899;51.282;6.094;2022-07-29T09:59:21;7.43;;;6.07;;
11685;SDS011;5899;51.282;6.094;2022-07-29T10:01:51;6.88;;;6.20;;
11685;SDS011;5899;51.282;6.094;2022-07-29T10:04:17;7.15;;;6.03;;
11685;SDS011;5899;51.282;6.094;2022-07-29T10:09:30;6.82;;;6.05;;
11685;SDS011;5899;51.282;6.094;2022-07-29T10:12:06;7.70;;;6.95;;
11685;SDS011;5899;51.282;6.094;2022-07-29T10:14:34;6.63;;;5.95;;
11685;SDS011;5899;51.282;6.094;2022-07-29T10:17:02;6.90;;;5.47;;
11685;SDS011;5899;51.282;6.094;2022-07-29T10:19:30;7.25;;;5.70;;
11685;SDS011;5899;51.282;6.094;2022-07-29T10:21:59;6.45;;;5.43;;
11685;SDS011;5899;51.282;6.094;2022-07-29T10:24:27;6.60;;;5.47;;
11685;SDS011;5899;51.282;6.094;2022-07-29T10:26:54;6.22;;;5.63;;
11685;SDS011;5899;51.282;6.094;2022-07-29T10:29:21;6.85;;;5.07;;
11685;SDS011;5899;51.282;6.094;2022-07-29T10:31:49;5.38;;;4.80;;
11685;SDS011;5899;51.282;6.094;2022-07-29T10:34:22;9.05;;;6.03;;
11685;SDS011;5899;51.282;6.094;2022-07-29T10:36:52;6.13;;;5.53;;
11685;SDS011;5899;51.282;6.094;2022-07-29T10:39:24;6.53;;;5.82;;
11685;SDS011;5899;51.282;6.094;2022-07-29T10:41:59;6.22;;;5.70;;
11685;SDS011;5899;51.282;6.094;2022-07-29T10:44:28;6.22;;;5.60;;
11685;SDS011;5899;51.282;6.094;2022-07-29T10:46:56;6.95;;;6.20;;
11685;SDS011;5899;51.282;6.094;2022-07-29T10:49:23;6.22;;;5.63;;
11685;SDS011;5899;51.282;6.094;2022-07-29T10:52:04;8.20;;;6.40;;
11685;SDS011;5899;51.282;6.094;2022-07-29T10:54:37;6.90;;;6.20;;
11685;SDS011;5899;51.282;6.094;2022-07-29T10:57:11;6.80;;;6.07;;
11685;SDS011;5899;51.282;6.094;2022-07-29T10:59:37;7.57;;;5.85;;
11685;SDS011;5899;51.282;6.094;2022-07-29T11:05:01;8.10;;;6.25;;
11685;SDS011;5899;51.282;6.094;2022-07-29T11:07:28;9.55;;;6.28;;
11685;SDS011;5899;51.282;6.094;2022-07-29T11:12:55;9.18;;;5.55;;
11685;SDS011;5899;51.282;6.094;2022-07-29T11:15:21;5.63;;;4.80;;
11685;SDS011;5899;51.282;6.094;2022-07-29T11:18:07;6.32;;;4.88;;
11685;SDS011;5899;51.282;6.094;2022-07-29T11:20:36;6.85;;;6.03;;
11685;SDS011;5899;51.282;6.094;2022-07-29T11:23:22;7.57;;;5.57;;
11685;SDS011;5899;51.282;6.094;2022-07-29T11:28:34;7.47;;;4.93;;
11685;SDS011;5899;51.282;6.094;2022-07-29T11:31:03;6.22;;;5.63;;
11685;SDS011;5899;51.282;6.094;2022-07-29T11:33:30;6.72;;;5.72;;
11685;SDS011;5899;51.282;6.094;2022-07-29T11:38:45;6.30;;;5.70;;
11685;SDS011;5899;51.282;6.094;2022-07-29T11:41:21;7.03;;;5.57;;
11685;SDS011;5899;51.282;6.094;2022-07-29T11:43:48;6.70;;;6.10;;
11685;SDS011;5899;51.282;6.094;2022-07-29T11:46:16;7.22;;;6.45;;
11685;SDS011;5899;51.282;6.094;2022-07-29T11:48:42;6.78;;;6.13;;
11685;SDS011;5899;51.282;6.094;2022-07-29T11:51:09;6.20;;;5.60;;
11685;SDS011;5899;51.282;6.094;2022-07-29T11:53:36;6.32;;;5.70;;
11685;SDS011;5899;51.282;6.094;2022-07-29T11:56:04;5.38;;;4.85;;
11685;SDS011;5899;51.282;6.094;2022-07-29T11:58:33;6.57;;;5.97;;
11685;SDS011;5899;51.282;6.094;2022-07-29T12:01:02;9.00;;;6.05;;
11685;SDS011;5899;51.282;6.094;2022-07-29T12:03:29;7.65;;;6.45;;
11685;SDS011;5899;51.282;6.094;2022-07-29T12:05:55;9.93;;;7.47;;
11685;SDS011;5899;51.282;6.094;2022-07-29T12:08:22;7.07;;;6.38;;
11685;SDS011;5899;51.282;6.094;2022-07-29T12:10:51;7.00;;;6.30;;
11685;SDS011;5899;51.282;6.094;2022-07-29T12:13:19;6.10;;;5.50;;
11685;SDS011;5899;51.282;6.094;2022-07-29T12:15:51;6.75;;;6.03;;
11685;SDS011;5899;51.282;6.094;2022-07-29T12:18:18;7.20;;;4.90;;
11685;SDS011;5899;51.282;6.094;2022-07-29T12:20:45;6.78;;;5.05;;
11685;SDS011;5899;51.282;6.094;2022-07-29T12:23:11;5.75;;;5.25;;
11685;SDS011;5899;51.282;6.094;2022-07-29T12:25:39;6.40;;;5.55;;
11685;SDS011;5899;51.282;6.094;2022-07-29T12:28:06;6.95;;;6.20;;
11685;SDS011;5899;51.282;6.094;2022-07-29T12:30:35;6.20;;;5.60;;
11685;SDS011;5899;51.282;6.094;2022-07-29T12:33:09;6.63;;;5.13;;
11685;SDS011;5899;51.282;6.094;2022-07-29T12:35:36;7.18;;;5.50;;
11685;SDS011;5899;51.282;6.094;2022-07-29T12:38:02;8.23;;;5.10;;
11685;SDS011;5899;51.282;6.094;2022-07-29T12:40:29;6.55;;;5.63;;
11685;SDS011;5899;51.282;6.094;2022-07-29T12:43:05;5.93;;;4.95;;
11685;SDS011;5899;51.282;6.094;2022-07-29T12:45:32;5.72;;;4.82;;
11685;SDS011;5899;51.282;6.094;2022-07-29T12:48:00;7.55;;;4.22;;
11685;SDS011;5899;51.282;6.094;2022-07-29T12:50:26;6.65;;;4.53;;
11685;SDS011;5899;51.282;6.094;2022-07-29T12:52:52;5.38;;;4.38;;
11685;SDS011;5899;51.282;6.094;2022-07-29T12:58:00;5.60;;;4.35;;
11685;SDS011;5899;51.282;6.094;2022-07-29T13:00:27;3.70;;;3.40;;
11685;SDS011;5899;51.282;6.094;2022-07-29T13:02:55;4.82;;;3.78;;
11685;SDS011;5899;51.282;6.094;2022-07-29T13:05:23;5.38;;;4.00;;
11685;SDS011;5899;51.282;6.094;2022-07-29T13:07:50;5.40;;;3.53;;
11685;SDS011;5899;51.282;6.094;2022-07-29T13:10:17;4.82;;;4.00;;
11685;SDS011;5899;51.282;6.094;2022-07-29T13:13:03;7.03;;;4.50;;
11685;SDS011;5899;51.282;6.094;2022-07-29T13:15:29;4.93;;;4.35;;
11685;SDS011;5899;51.282;6.094;2022-07-29T13:17:56;4.80;;;4.32;;
11685;SDS011;5899;51.282;6.094;2022-07-29T13:20:25;5.05;;;4.50;;
11685;SDS011;5899;51.282;6.094;2022-07-29T13:22:52;4.88;;;3.65;;
11685;SDS011;5899;51.282;6.094;2022-07-29T13:25:23;4.78;;;3.60;;
11685;SDS011;5899;51.282;6.094;2022-07-29T13:27:50;5.90;;;3.70;;
11685;SDS011;5899;51.282;6.094;2022-07-29T13:30:16;5.28;;;3.60;;
11685;SDS011;5899;51.282;6.094;2022-07-29T13:32:43;4.50;;;3.50;;
11685;SDS011;5899;51.282;6.094;2022-07-29T13:35:09;4.88;;;3.65;;
11685;SDS011;5899;51.282;6.094;2022-07-29T13:37:38;4.38;;;3.35;;
11685;SDS011;5899;51.282;6.094;2022-07-29T13:40:04;3.90;;;3.20;;
11685;SDS011;5899;51.282;6.094;2022-07-29T13:42:31;6.78;;;3.20;;
11685;SDS011;5899;51.282;6.094;2022-07-29T13:44:57;3.45;;;2.42;;
11685;SDS011;5899;51.282;6.094;2022-07-29T13:47:24;5.43;;;2.97;;
11685;SDS011;5899;51.282;6.094;2022-07-29T13:49:50;4.07;;;2.92;;
11685;SDS011;5899;51.282;6.094;2022-07-29T13:52:18;2.72;;;2.50;;
11685;SDS011;5899;51.282;6.094;2022-07-29T13:54:46;5.05;;;2.72;;
11685;SDS011;5899;51.282;6.094;2022-07-29T13:57:13;5.20;;;3.00;;
11685;SDS011;5899;51.282;6.094;2022-07-29T13:59:40;3.20;;;2.90;;
11685;SDS011;5899;51.282;6.094;2022-07-29T14:02:07;3.88;;;2.90;;
11685;SDS011;5899;51.282;6.094;2022-07-29T14:04:33;4.50;;;3.30;;
11685;SDS011;5899;51.282;6.094;2022-07-29T14:07:00;4.32;;;2.92;;
11685;SDS011;5899;51.282;6.094;2022-07-29T14:09:26;6.38;;;3.45;;
11685;SDS011;5899;51.282;6.094;2022-07-29T14:11:54;7.25;;;4.47;;
11685;SDS011;5899;51.282;6.094;2022-07-29T14:14:21;3.58;;;3.00;;
11685;SDS011;5899;51.282;6.094;2022-07-29T14:16:47;3.10;;;2.85;;
11685;SDS011;5899;51.282;6.094;2022-07-29T14:19:13;4.90;;;3.55;;
11685;SDS011;5899;51.282;6.094;2022-07-29T14:21:40;4.22;;;3.17;;
11685;SDS011;5899;51.282;6.094;2022-07-29T14:24:06;6.00;;;4.53;;
11685;SDS011;5899;51.282;6.094;2022-07-29T14:26:33;4.20;;;3.22;;
11685;SDS011;5899;51.282;6.094;2022-07-29T14:29:02;4.70;;;2.88;;
11685;SDS011;5899;51.282;6.094;2022-07-29T14:31:29;5.72;;;3.42;;
11685;SDS011;5899;51.282;6.094;2022-07-29T14:33:55;3.75;;;3.10;;
11685;SDS011;5899;51.282;6.094;2022-07-29T14:36:22;4.53;;;2.83;;
11685;SDS011;5899;51.282;6.094;2022-07-29T14:38:48;3.50;;;2.50;;
11685;SDS011;5899;51.282;6.094;2022-07-29T14:41:15;3.17;;;2.40;;
11685;SDS011;5899;51.282;6.094;2022-07-29T14:43:41;3.47;;;3.15;;
11685;SDS011;5899;51.282;6.094;2022-07-29T14:46:09;5.32;;;3.90;;
11685;SDS011;5899;51.282;6.094;2022-07-29T14:48:36;5.45;;;3.83;;
11685;SDS011;5899;51.282;6.094;2022-07-29T14:51:02;8.70;;;4.50;;
11685;SDS011;5899;51.282;6.094;2022-07-29T14:53:28;5.32;;;4.03;;
11685;SDS011;5899;51.282;6.094;2022-07-29T14:55:55;6.88;;;3.70;;
11685;SDS011;5899;51.282;6.094;2022-07-29T14:58:21;5.93;;;4.00;;
11685;SDS011;5899;51.282;6.094;2022-07-29T15:00:48;6.20;;;4.00;;
11685;SDS011;5899;51.282;6.094;2022-07-29T15:03:16;4.07;;;3.67;;
11685;SDS011;5899;51.282;6.094;2022-07-29T15:05:42;3.67;;;3.25;;
11685;SDS011;5899;51.282;6.094;2022-07-29T15:08:09;7.18;;;5.15;;
11685;SDS011;5899;51.282;6.094;2022-07-29T15:10:35;6.20;;;4.35;;
11685;SDS011;5899;51.282;6.094;2022-07-29T15:13:02;6.75;;;4.53;;
11685;SDS011;5899;51.282;6.094;2022-07-29T15:15:28;5.57;;;4.68;;
11685;SDS011;5899;51.282;6.094;2022-07-29T15:17:55;5.50;;;4.30;;
11685;SDS011;5899;51.282;6.094;2022-07-29T15:20:23;6.65;;;5.30;;